Latest Weather Observations for Falls Creek

IDV60801

Issued at 11:05 am EST Thursday 28 August 2014 (issued every 30 minutes, with the page automatically refreshed every 10 minutes)

About weather observations | Map of weather stations | Latest weather observations for VIC | Other Formats
Station Details ID: 083084 Name: FALLS CREEK Lat: -36.87 Lon: 147.28 Height: 1765.0 m
Data from the previous 72 hours. | See also: Recent months at Falls Creek
Date/Time
EST
Temp
°C
App
Temp
°C
Dew
Point
Rel
Hum
%
Delta-T
°C
Wind Press
QNH
hPa
Press
MSL
hPa
Rain
since 9 am
mm
Dir
 
Spd
km/h
Gust
km/h
Spd
kts
Gust
kts
28/11:00am 4.9 -1.1 -10.8 31 5.4 S 15 20 8 11 1028.9 1031.7 0.0
28/10:30am 4.7 -1.4 -12.2 28 5.6 SSE 15 20 8 11 1028.9 1031.7 0.0
28/10:00am 4.2 -2.3 -13.6 26 5.6 SSE 17 24 9 13 1028.9 1031.7 0.0
28/09:30am 3.6 -3.3 -14.1 26 5.5 SSE 19 28 10 15 1028.8 1031.6 0.0
28/09:00am 3.1 -3.8 -13.6 28 5.1 SSE 19 26 10 14 1028.8 1031.6 0.0
28/08:30am 2.2 -5.0 -15.3 26 5.1 SSE 20 24 11 13 1028.7 1031.5 0.0
28/08:00am 1.2 -5.7 -14.4 30 4.5 SSE 19 22 10 12 1028.6 1031.3 0.0
28/07:30am 1.3 -5.9 -16.5 25 4.9 SSE 20 24 11 13 1028.1 1030.8 0.0
28/07:00am 1.7 -5.6 -18.2 21 5.2 SSE 20 26 11 14 1027.7 1030.5 0.0
28/06:30am 1.6 -5.7 -18.3 21 5.2 SSE 20 26 11 14 1027.5 1030.2 0.0
28/06:00am 1.5 -6.2 -18.4 21 5.2 SSE 22 28 12 15 1027.5 1030.2 0.0
28/05:30am 1.3 -6.4 -18.0 22 5.1 SSE 22 26 12 14 1027.4 1030.1 0.0
28/05:00am 1.0 -6.7 -17.3 24 4.9 S 22 26 12 14 1027.1 1029.8 0.0
28/04:30am -0.2 -7.3 -14.5 33 4.0 S 20 24 11 13 1027.1 1029.8 0.0
28/04:00am -0.4 -6.9 -13.6 36 3.7 S 17 20 9 11 1027.1 1029.8 0.0
28/03:30am 0.2 -6.8 -12.4 38 3.8 S 20 28 11 15 1027.2 1030.0 0.0
28/03:00am -0.4 -6.9 -12.9 38 3.6 S 17 20 9 11 1027.2 1030.0 0.0
28/02:30am 0.0 -6.1 -12.3 39 3.7 S 15 19 8 10 1027.2 1030.0 0.0
28/02:00am 0.3 -5.4 -12.3 38 3.7 SSE 13 17 7 9 1027.2 1030.0 0.0
28/01:30am 0.4 -5.7 -12.2 38 3.8 S 15 19 8 10 1027.4 1030.1 0.0
28/01:00am 0.7 -5.4 -12.6 36 4.0 S 15 19 8 10 1027.6 1030.3 0.0
28/12:30am 0.9 -4.8 -12.1 37 4.0 S 13 17 7 9 1027.7 1030.5 0.0
28/12:00am 1.3 -5.1 -11.1 39 3.9 SSE 17 22 9 12 1027.5 1030.2 0.0
 
Date/Time
EST
Temp
°C
App
Temp
°C
Dew
Point
Rel
Hum
%
Delta-T
°C
Wind Press
QNH
hPa
Press
MSL
hPa
Rain
since 9 am
mm
Dir
 
Spd
km/h
Gust
km/h
Spd
kts
Gust
kts
27/11:30pm 0.3 -6.2 -7.7 55 2.7 S 19 22 10 12 1027.7 1030.5 0.0
27/11:00pm 0.0 -5.2 -0.1 99 0.0 SSE 17 20 9 11 1027.8 1030.6 0.0
27/10:30pm 0.0 -5.8 -0.1 99 0.0 SSE 20 24 11 13 1027.8 1030.6 0.0
27/10:00pm -0.3 -6.0 -0.4 99 0.0 SSE 19 20 10 11 1027.8 1030.6 0.0
27/09:30pm 0.4 -4.4 0.3 99 0.0 SSE 15 20 8 11 1028.0 1030.7 0.0
27/09:00pm 0.2 -4.2 0.1 99 0.0 SSE 13 17 7 9 1028.1 1030.8 0.0
27/08:30pm 0.4 -2.9 0.0 97 0.2 SSE 7 11 4 6 1028.2 1031.0 0.0
27/08:00pm 0.6 -3.5 -0.1 95 0.3 S 11 15 6 8 1028.1 1030.8 0.0
27/07:30pm 1.1 -2.3 -0.4 90 0.6 SSE 7 13 4 7 1028.1 1030.8 0.0
27/07:00pm 1.6 -2.2 -0.8 84 1.0 SSE 9 15 5 8 1028.0 1030.7 0.0
27/06:30pm 2.1 -2.5 -1.0 80 1.3 SSE 13 19 7 10 1027.8 1030.6 0.0
27/06:00pm 2.5 -2.3 -2.2 71 1.8 SSE 13 15 7 8 1027.6 1030.3 0.0
27/05:30pm 3.6 -1.3 -3.6 59 2.8 SE 13 15 7 8 1027.5 1030.2 0.0
27/05:00pm 4.2 0.1 -3.1 59 2.9 SSE 9 13 5 7 1027.5 1030.2 0.0
27/04:30pm 4.9 0.4 -3.4 55 3.3 SSE 11 15 6 8 1027.4 1030.1 0.0
27/04:00pm 5.3 0.7 -4.5 49 3.8 SSE 11 19 6 10 1027.1 1029.8 0.0
27/03:30pm 5.8 0.7 -5.5 44 4.3 SE 13 20 7 11 1027.0 1029.7 0.0
27/03:00pm 6.1 1.8 -4.6 46 4.1 SE 9 17 5 9 1027.1 1029.8 0.0
27/02:30pm 5.6 0.4 -5.7 44 4.2 SSE 13 22 7 12 1027.0 1029.7 0.0
27/02:00pm 5.9 1.2 -4.8 46 4.1 SE 11 17 6 9 1027.0 1029.7 0.0
27/01:30pm 5.7 0.6 -5.6 44 4.3 SSE 13 20 7 11 1027.0 1029.7 0.0
27/01:00pm 6.7 1.5 -5.9 40 4.7 ESE 13 15 7 8 1027.1 1029.8 0.0
27/12:30pm 6.3 1.2 -5.6 42 4.5 ESE 13 19 7 10 1027.4 1030.1 0.0
27/12:00pm 4.9 -0.7 -6.3 44 4.1 SE 15 22 8 12 1027.5 1030.2 0.0
27/11:30am 4.4 -0.8 -5.9 47 3.8 SSE 13 20 7 11 1027.7 1030.5 0.0
27/11:00am 4.2 -0.4 -4.5 53 3.3 SSE 11 17 6 9 1027.8 1030.6 0.0
27/10:30am 4.2 -0.5 -5.0 51 3.5 SE 11 17 6 9 1027.8 1030.6 0.0
27/10:00am 3.7 -1.1 -5.7 50 3.4 SSE 11 17 6 9 1027.7 1030.5 0.0
27/09:30am 3.6 -1.2 -5.8 50 3.4 SE 11 15 6 8 1027.6 1030.3 0.0
27/09:00am 2.9 -2.3 -6.5 50 3.5 SE 13 19 7 10 1027.5 1030.2 0.0
27/08:30am 3.0 -1.7 -9.3 40 4.3 SE 9 13 5 7 1027.4 1030.1 0.0
27/08:00am 2.8 -2.6 -13.4 29 5.0 SSE 11 13 6 7 1027.4 1030.1 0.0
27/07:30am 2.6 -2.4 -13.2 30 4.9 SSE 9 11 5 6 1027.0 1029.7 0.0
27/07:00am 2.5 -2.5 -13.7 29 4.9 SSE 9 11 5 6 1026.7 1029.3 0.0
27/06:30am 2.1 -2.8 -12.1 34 4.5 SSE 9 11 5 6 1026.4 1029.1 0.0
27/06:00am 2.4 -2.4 -10.8 37 4.3 SSE 9 13 5 7 1026.3 1029.0 0.0
27/05:30am 2.5 -1.8 -8.5 44 3.8 SSE 7 11 4 6 1026.3 1029.0 0.0
27/05:00am 2.2 -2.3 -6.6 52 3.2 SSE 9 11 5 6 1026.3 1029.0 0.0
27/04:30am 1.9 -2.8 -5.2 59 2.7 SSE 11 15 6 8 1026.3 1029.0 0.0
27/04:00am 2.1 -3.0 -4.8 60 2.6 SSE 13 15 7 8 1026.4 1029.1 0.0
27/03:30am 2.0 -2.9 -3.1 69 2.0 SSE 13 15 7 8 1026.4 1029.1 0.0
27/03:00am 2.1 -2.7 -2.8 70 1.9 SSE 13 15 7 8 1026.5 1029.2 0.0
27/02:30am 1.8 -3.3 -1.8 77 1.4 SE 15 20 8 11 1026.8 1029.5 0.0
27/02:00am 1.0 -3.1 -0.5 90 0.6 SE 11 15 6 8 1027.0 1029.7 0.0
27/01:30am 0.6 -3.8 0.6 100 0.0 SE 13 20 7 11 1027.1 1029.8 0.0
27/01:00am 0.5 -4.3 0.5 100 0.0 SSE 15 19 8 10 1027.4 1030.1 0.0
27/12:30am 0.7 -4.0 0.7 100 0.0 SSE 15 19 8 10 1027.4 1030.1 0.0
27/12:00am 0.8 -3.5 0.8 100 0.0 SE 13 19 7 10 1027.4 1030.1 0.0
 
Date/Time
EST
Temp
°C
App
Temp
°C
Dew
Point
Rel
Hum
%
Delta-T
°C
Wind Press
QNH
hPa
Press
MSL
hPa
Rain
since 9 am
mm
Dir
 
Spd
km/h
Gust
km/h
Spd
kts
Gust
kts
26/11:30pm 0.9 -4.2 0.9 100 0.0 SE 17 22 9 12 1027.5 1030.2 0.0
26/11:00pm 1.0 -5.0 1.0 100 0.0 SE 22 28 12 15 1027.4 1030.1 0.0
26/10:30pm 1.3 -4.7 1.3 100 0.0 SE 22 32 12 17 1027.6 1030.3 0.0
26/10:00pm 1.5 -3.9 1.5 100 0.0 SE 19 30 10 16 1027.7 1030.5 0.0
26/09:30pm 1.6 -3.9 1.6 100 0.0 SSE 20 30 11 16 1027.6 1030.3 0.0
26/09:00pm 1.8 -3.5 1.8 100 0.0 SE 19 30 10 16 1027.6 1030.3 0.0
26/08:30pm 1.9 -4.0 1.9 100 0.0 SE 22 30 12 16 1027.4 1030.1 0.0
26/08:00pm 2.2 -3.6 2.2 100 0.0 SE 22 32 12 17 1027.4 1030.1 0.0
26/07:30pm 2.3 -3.9 2.3 100 0.0 SE 24 32 13 17 1027.1 1029.8 0.0
26/07:00pm 2.4 -3.8 2.4 100 0.0 SE 24 33 13 18 1027.0 1029.7 0.0
26/06:30pm 2.4 -3.8 2.4 100 0.0 SE 24 32 13 17 1026.8 1029.5 0.0
26/06:00pm 2.6 -2.2 2.5 99 0.0 SE 17 24 9 13 1027.0 1029.7 0.0
26/05:30pm 3.4 -1.5 1.9 90 0.7 SE 17 22 9 12 1026.9 1029.6 0.0
26/05:00pm 3.8 -0.8 1.7 86 0.9 SE 15 22 8 12 1026.7 1029.3 0.0
26/04:30pm 4.8 0.5 0.9 76 1.7 ESE 13 20 7 11 1026.5 1029.2 0.0
26/04:00pm 4.9 0.2 0.7 74 1.8 ESE 15 22 8 12 1026.5 1029.2 0.0
26/03:30pm 5.1 -1.0 0.5 72 2.0 ESE 22 30 12 16 1026.4 1029.1 0.0
26/03:00pm 4.9 -1.6 0.1 71 2.1 ESE 24 33 13 18 1026.2 1028.8 0.0
26/02:30pm 5.2 0.1 0.6 72 2.0 ESE 17 28 9 15 1026.3 1029.0 0.0
26/02:00pm 4.3 -0.8 0.5 76 1.6 SE 17 28 9 15 1026.3 1029.0 0.0
26/01:30pm 3.9 -2.6 0.6 79 1.4 ESE 24 35 13 19 1026.4 1029.1 0.0
26/01:00pm 3.7 -3.1 0.7 81 1.3 SE 26 37 14 20 1026.4 1029.1 0.0
26/12:30pm 3.1 -4.3 1.8 91 0.6 SE 30 39 16 21 1026.4 1029.1 0.0
26/12:00pm 2.9 -4.7 2.6 98 0.1 SE 32 43 17 23 1026.5 1029.2 0.0
26/11:30am 2.2 -6.5 2.2 100 0.0 SE 37 52 20 28 1026.3 1029.0 0.0
26/11:00am 2.0 -7.1 2.0 100 0.0 SE 39 52 21 28 1026.7 1029.3 0.0
26/10:30am 1.7 -6.3 1.7 100 0.0 SE 33 46 18 25 1026.8 1029.5 0.0
26/10:00am 1.6 -6.8 1.6 100 0.0 ESE 35 48 19 26 1027.0 1029.7 0.0
26/09:30am 1.5 -6.3 1.5 100 0.0 SE 32 43 17 23 1027.0 1029.7 0.0
26/09:00am 1.6 -6.2 1.6 100 0.0 SE 32 44 17 24 1026.9 1029.6 0.6
26/08:39am 1.4 -6.1 1.4 100 0.0 SE 30 48 16 26 1026.7 1029.3 0.6
26/08:30am 1.4 -6.4 1.4 100 0.0 SE 32 46 17 25 1026.7 1029.3 0.6
26/08:00am 1.3 -6.2 1.3 100 0.0 SE 30 44 16 24 1026.2 1028.8 0.6
26/07:30am 1.2 -6.9 1.2 100 0.0 SE 33 46 18 25 1026.1 1028.7 0.6
26/07:00am 1.0 -6.9 1.0 100 0.0 SE 32 44 17 24 1025.8 1028.5 0.6
26/06:30am 1.0 -7.5 1.0 100 0.0 SE 35 48 19 26 1025.2 1027.9 0.6
26/06:09am 0.9 -7.6 0.9 100 0.0 SE 35 54 19 29 1025.0 1027.6 0.6
26/06:00am 0.9 -7.6 0.9 100 0.0 SE 35 48 19 26 1024.9 1027.5 0.6
26/05:30am 0.8 -6.8 0.8 100 0.0 SSE 30 41 16 22 1024.7 1027.4 0.6
26/05:00am 0.8 -8.5 0.8 100 0.0 ESE 39 57 21 31 1024.6 1027.2 0.6
26/04:32am 0.7 -8.6 0.7 100 0.0 ESE 39 57 21 31 1024.5 1027.1 0.6
26/04:30am 0.7 -9.0 0.7 100 0.0 ESE 41 57 22 31 1024.4 1027.0 0.6
26/04:00am 0.7 -9.0 0.7 100 0.0 SE 41 57 22 31 1024.2 1026.7 0.6
26/03:30am 0.8 -8.9 0.8 100 0.0 SE 41 63 22 34 1024.0 1026.6 0.6
26/03:05am 0.9 -7.2 0.9 100 0.0 SE 33 56 18 30 1024.2 1026.7 0.6
26/03:00am 0.8 -7.1 0.8 100 0.0 SE 32 43 17 23 1024.5 1027.1 0.6
26/02:30am 0.8 -7.1 0.8 100 0.0 SE 32 41 17 22 1024.9 1027.5 0.6
26/02:00am 0.8 -6.8 0.8 100 0.0 SE 30 41 16 22 1025.0 1027.6 0.6
26/01:30am 0.7 -6.1 0.7 100 0.0 SE 26 41 14 22 1025.3 1028.0 0.6
26/01:00am 0.7 -7.3 0.7 100 0.0 SE 32 43 17 23 1025.5 1028.1 0.6
26/12:30am 0.7 -6.1 0.7 100 0.0 SE 26 35 14 19 1025.6 1028.2 0.6
26/12:00am 0.6 -6.2 0.6 100 0.0 SE 26 37 14 20 1025.9 1028.6 0.6
 
Date/Time
EST
Temp
°C
App
Temp
°C
Dew
Point
Rel
Hum
%
Delta-T
°C
Wind Press
QNH
hPa
Press
MSL
hPa
Rain
since 9 am
mm
Dir
 
Spd
km/h
Gust
km/h
Spd
kts
Gust
kts
25/11:30pm 0.5 -6.7 0.5 100 0.0 SSE 28 41 15 22 1025.6 1028.2 0.6
25/11:00pm 0.6 -5.9 0.6 100 0.0 SE 24 35 13 19 1025.5 1028.1 0.6
25/10:30pm 0.6 -6.2 0.6 100 0.0 SE 26 41 14 22 1025.3 1028.0 0.6
25/10:00pm 0.4 -6.1 0.4 100 0.0 SSE 24 37 13 20 1025.3 1028.0 0.6
25/09:30pm 0.4 -6.5 0.4 100 0.0 SE 26 39 14 21 1025.6 1028.2 0.6
25/09:00pm 0.4 -6.1 0.4 100 0.0 SE 24 35 13 19 1025.6 1028.2 0.6
25/08:30pm 0.2 -6.7 0.2 100 0.0 SE 26 35 14 19 1025.3 1028.0 0.6
25/08:00pm 0.3 -6.6 0.3 100 0.0 SE 26 37 14 20 1025.2 1027.9 0.6
25/07:30pm 0.5 -6.0 0.5 100 0.0 SE 24 35 13 19 1025.2 1027.9 0.6
25/07:00pm 0.5 -5.2 0.5 100 0.0 SSE 20 32 11 17 1025.2 1027.9 0.6
25/06:30pm 0.6 -6.2 0.6 100 0.0 SSE 26 39 14 21 1025.1 1027.7 0.6
25/06:00pm 0.8 -6.0 0.7 99 0.0 SSE 26 35 14 19 1024.5 1027.1 0.6
25/05:30pm 0.9 -5.1 0.8 99 0.0 SSE 22 35 12 19 1024.2 1026.7 0.6
25/05:00pm 1.1 -4.4 0.8 98 0.1 SSE 19 28 10 15 1024.2 1026.7 0.6
25/04:30pm 1.2 -4.3 0.9 98 0.1 SE 19 28 10 15 1024.0 1026.6 0.6
25/04:00pm 1.3 -3.8 0.6 95 0.3 SSE 17 28 9 15 1023.9 1026.5 0.4
25/03:30pm 2.6 -3.0 0.0 83 1.1 SE 19 26 10 14 1023.9 1026.5 0.0
25/03:00pm 2.5 -3.4 1.6 94 0.4 SE 22 30 12 16 1023.8 1026.4 0.0
25/02:30pm 3.3 -1.9 3.3 100 0.0 SE 20 26 11 14 1023.9 1026.5 0.0
25/02:00pm 2.5 -1.9 2.5 100 0.0 SE 15 20 8 11 1023.9 1026.5 0.0
25/01:30pm 2.8 -2.3 2.8 100 0.0 ESE 19 26 10 14 1024.0 1026.6 0.0
25/01:00pm 2.2 -1.9 2.2 100 0.0 SE 13 19 7 10 1024.2 1026.7 0.0
25/12:30pm 2.9 -1.1 2.9 100 0.0 SE 13 19 7 10 1024.4 1027.0 0.0
25/12:00pm 4.1 0.7 4.1 100 0.0 SE 11 15 6 8 1024.5 1027.1 0.0
25/11:30am 3.5 0.0 3.5 100 0.0 SE 11 15 6 8 1024.6 1027.2 0.0

Other Formats:

Comma delimited format used in spreadsheet applications
http://www.bom.gov.au/fwo/IDV60801/IDV60801.94903.axf

JavaScript Object Notation format (JSON) in row-major order
http://www.bom.gov.au/fwo/IDV60801/IDV60801.94903.json